Rejestracja

Wszystkie dane podawane są w czasie UTC za wyjątkiem miejsc gdzie jest jednoznacznie podane, że jest inaczej. Dane podawane w serwisie mają charakter informacyjny!!!
Informacje w sprawie dostępu do serwisu pod numerem tel. +48 261-828-559 lub +48 261-828-138
Informacja dla żołnierzy i pracowników wojska: Prosimy o niezwłoczną zmianę adresu e-mail w profilu użytkownika na pocztę w domenie @ron.mil.pl
Brak służbowego adresu e-mail skutkuje usunięciem konta.

Aktualna Pogoda
 
Pogoda w Polsce
12°C Szczecin 7°C Suwałki 7°C Warszawa 6°C Poznan
4°C Opole 5°C Kraków 3°C Rzeszów
Więcej miast w Polsce

Pogoda w Europie
11°C Berlin 13°C Paryz 11°C Bruksela 9°C Oslo
7°C Praga 10°C Zagrzeb
Więcej miast w Europie

Metary wojskowe test
METAR EPCE 010200Z 17007KT 130V210 7000 OVC007 06/04 Q1019 RMK 055 091 8/8=
METAR EPDA 010200Z 15010KT 100V190 9999 OVC033 08/07 Q1018 RMK 084 088 8/8=
METAR EPDE 010200Z 08002KT 0200 FG BKN002 BKN027 03/03 Q1024 RMK 027 099 7/5=
METAR EPIR 010200Z AUTO 12012KT VV006 06/04 Q1021 RMK 058 091 ///=
METAR EPKS 010200Z 12009KT 0300 R29/0900N FG OVC002 06/06 Q1020 RMK 058 100 8/8=
METAR EPLK 010200Z 16006KT 140V210 0500 R28/P2000N FG OVC002 04/04 Q1022 RMK 041 100 8/8=
METAR EPLY 010200Z AUTO 18004KT 06/05 Q1022 RMK 056 093 ///=
METAR EPMB 010200Z 16008KT 9999 OVC008 07/06 Q1021 RMK 066 093 8/8=
METAR EPMI 010200Z 15008KT 120V190 6000 OVC006 08/07 Q1018 RMK 075 095 8/8=
METAR EPMM 010200Z 00000KT 0500 R26/0650N FG VV/// 00/00 Q1023 RMK 002 100 ///=
METAR EPOK 010200Z 17014KT 9999 BKN011 06/04 Q1020 RMK 058 087 7/7=
METAR EPPR 010200Z AUTO 14006KT VV010 07/04 Q1021 RMK 065 082 ///=
METAR EPPW 010200Z 15010KT 2000 BR OVC003 06/06 Q1021 RMK 060 100 8/8=
METAR EPSN 010200Z 15010KT 8000 OVC007 09/08 Q1017 RMK 086 097 8/8=
METAR EPTM 010200Z AUTO 14004KT ///001 ///004 02/01 Q1023 RMK 023 093 ///=


 

Prawa autorskie©2007 SSH SZ RP. Wszelkie prawa zastrzeżone.